PWSweather.com
Personal Weather Stations
Station Observations
KILMORRI1
Goose Lake, Morris, IL 60450

Goose LakeMorris, IL 60450

Lat: 41.34, Lon: -88.3

Elevation: 523

Station Type:

www.gooselakeweather.com

High Low Average
Temperature 28.2°F-2.1°C 9.5°F-12.5°C 21.4°F-5.9°C
Dew Point 22.5°F-5.3°C 6.2°F-14.3°C 17.5°F-8.1°C
Winds 6.9 mph 11.1 kmh Calm Calm 3.0 mph WSW4.8 kmh WSW
Wind Gusts 11.5 mph18.5 kmh -- 4.0 mph6.4 kmh
Humidity 90% 77% 85%
Pressure 30.43 in1030.5 mb 30.30 in1026.1 mb -
Precipitation 0.00 in0.0 mm - -
Hour Temp Dew Point Humidity Winds Wind Gusts Pressure Precip Precip Rate Daily Precip Total
12:00 AM 12.6°F-10.8°C 9.5°F-12.5°C 87% Calm Calm -- 30.42 in1030.1 mb - 0.00 in0.0 mm 0.06 in1.5 mm
12:10 AM 12.9°F-10.6°C 10.0°F-12.2°C 88% Calm Calm -- 30.42 in1030.1 mb - 0.00 in0.0 mm 0.06 in1.5 mm
12:20 AM 12.7°F-10.7°C 9.5°F-12.5°C 87% Calm Calm 1.2 mph1.9 kmh 30.42 in1030.1 mb - 0.00 in0.0 mm 0.06 in1.5 mm
12:30 AM 12.3°F-10.9°C 9.2°F-12.7°C 87% 1.2 mph NW1.9 kmh NW 1.2 mph1.9 kmh 30.42 in1030.1 mb - 0.00 in0.0 mm 0.06 in1.5 mm
12:40 AM 12.3°F-10.9°C 8.9°F-12.8°C 86% 1.2 mph NW1.9 kmh NW 2.3 mph3.7 kmh 30.42 in1030.1 mb - 0.00 in0.0 mm 0.06 in1.5 mm
12:50 AM 12.6°F-10.8°C 9.7°F-12.4°C 88% 1.2 mph NW1.9 kmh NW 1.2 mph1.9 kmh 30.41 in1029.8 mb - 0.00 in0.0 mm 0.06 in1.5 mm
01:00 AM 12.5°F-10.8°C 9.4°F-12.6°C 87% Calm Calm -- 30.41 in1029.8 mb - 0.00 in0.0 mm 0.00 in0.0 mm
01:10 AM 12.5°F-10.8°C 9.4°F-12.6°C 87% Calm Calm 1.2 mph1.9 kmh 30.41 in1029.8 mb - 0.00 in0.0 mm 0.00 in0.0 mm
01:20 AM 11.8°F-11.2°C 8.5°F-13.1°C 86% Calm Calm 1.2 mph1.9 kmh 30.41 in1029.8 mb - 0.00 in0.0 mm 0.00 in0.0 mm
01:30 AM 10.7°F-11.8°C 7.3°F-13.7°C 86% 1.2 mph NW1.9 kmh NW 2.3 mph3.7 kmh 30.41 in1029.8 mb - 0.00 in0.0 mm 0.00 in0.0 mm
01:40 AM 10.9°F-11.7°C 7.6°F-13.6°C 86% 1.2 mph NW1.9 kmh NW 1.2 mph1.9 kmh 30.41 in1029.8 mb - 0.00 in0.0 mm 0.00 in0.0 mm
01:50 AM 11.3°F-11.5°C 8.2°F-13.2°C 87% 1.2 mph NW1.9 kmh NW 2.3 mph3.7 kmh 30.41 in1029.8 mb - 0.00 in0.0 mm 0.00 in0.0 mm
02:00 AM 12.1°F-11.1°C 9.0°F-12.8°C 87% 2.3 mph NW3.7 kmh NW 3.5 mph5.6 kmh 30.41 in1029.8 mb - 0.00 in0.0 mm 0.00 in0.0 mm
02:10 AM 13.4°F-10.3°C 10.5°F-11.9°C 88% 2.3 mph W3.7 kmh W 2.3 mph3.7 kmh 30.41 in1029.8 mb - 0.00 in0.0 mm 0.00 in0.0 mm
02:20 AM 12.7°F-10.7°C 9.4°F-12.6°C 86% 1.2 mph WNW1.9 kmh WNW 2.3 mph3.7 kmh 30.42 in1030.1 mb - 0.00 in0.0 mm 0.00 in0.0 mm
02:30 AM 11.3°F-11.5°C 8.2°F-13.2°C 87% 1.2 mph WNW1.9 kmh WNW 2.3 mph3.7 kmh 30.42 in1030.1 mb - 0.00 in0.0 mm 0.00 in0.0 mm
02:40 AM 11.5°F-11.4°C 8.4°F-13.1°C 87% 1.2 mph WNW1.9 kmh WNW 2.3 mph3.7 kmh 30.42 in1030.1 mb - 0.00 in0.0 mm 0.00 in0.0 mm
02:50 AM 11.3°F-11.5°C 8.2°F-13.2°C 87% 1.2 mph WNW1.9 kmh WNW 2.3 mph3.7 kmh 30.42 in1030.1 mb - 0.00 in0.0 mm 0.00 in0.0 mm
03:00 AM 11.4°F-11.4°C 8.0°F-13.3°C 86% Calm Calm -- 30.43 in1030.5 mb - 0.00 in0.0 mm 0.00 in0.0 mm
03:10 AM 9.9°F-12.3°C 6.6°F-14.1°C 86% Calm Calm -- 30.42 in1030.1 mb - 0.00 in0.0 mm 0.00 in0.0 mm
03:20 AM 9.5°F-12.5°C 6.2°F-14.3°C 86% Calm Calm -- 30.42 in1030.1 mb - 0.00 in0.0 mm 0.00 in0.0 mm
03:30 AM 9.9°F-12.3°C 6.6°F-14.1°C 86% Calm Calm -- 30.43 in1030.5 mb - 0.00 in0.0 mm 0.00 in0.0 mm
03:40 AM 9.6°F-12.4°C 6.2°F-14.3°C 86% Calm Calm 1.2 mph1.9 kmh 30.42 in1030.1 mb - 0.00 in0.0 mm 0.00 in0.0 mm
03:50 AM 9.9°F-12.3°C 6.6°F-14.1°C 86% 1.2 mph WNW1.9 kmh WNW 1.2 mph1.9 kmh 30.42 in1030.1 mb - 0.00 in0.0 mm 0.00 in0.0 mm
04:00 AM 10.5°F-11.9°C 7.4°F-13.7°C 87% 1.2 mph WNW1.9 kmh WNW 1.2 mph1.9 kmh 30.43 in1030.5 mb - 0.00 in0.0 mm 0.00 in0.0 mm
04:10 AM 10.4°F-12.0°C 7.0°F-13.9°C 86% Calm Calm 1.2 mph1.9 kmh 30.42 in1030.1 mb - 0.00 in0.0 mm 0.00 in0.0 mm
04:20 AM 10.6°F-11.9°C 7.2°F-13.8°C 86% 1.2 mph WNW1.9 kmh WNW 2.3 mph3.7 kmh 30.42 in1030.1 mb - 0.00 in0.0 mm 0.00 in0.0 mm
04:30 AM 11.1°F-11.6°C 8.0°F-13.3°C 87% 1.2 mph WNW1.9 kmh WNW 1.2 mph1.9 kmh 30.42 in1030.1 mb - 0.00 in0.0 mm 0.00 in0.0 mm
04:40 AM 11.1°F-11.6°C 7.7°F-13.5°C 86% 1.2 mph WNW1.9 kmh WNW 2.3 mph3.7 kmh 30.42 in1030.1 mb - 0.00 in0.0 mm 0.00 in0.0 mm
04:50 AM 11.1°F-11.6°C 8.0°F-13.3°C 87% 1.2 mph WNW1.9 kmh WNW 3.5 mph5.6 kmh 30.42 in1030.1 mb - 0.00 in0.0 mm 0.00 in0.0 mm
05:00 AM 11.5°F-11.4°C 8.3°F-13.2°C 87% 1.2 mph WNW1.9 kmh WNW 1.2 mph1.9 kmh 30.42 in1030.1 mb - 0.00 in0.0 mm 0.00 in0.0 mm
05:10 AM 11.3°F-11.5°C 7.9°F-13.4°C 86% 1.2 mph WNW1.9 kmh WNW 2.3 mph3.7 kmh 30.42 in1030.1 mb - 0.00 in0.0 mm 0.00 in0.0 mm
05:20 AM 11.0°F-11.7°C 7.6°F-13.6°C 86% 1.2 mph WNW1.9 kmh WNW 2.3 mph3.7 kmh 30.42 in1030.1 mb - 0.00 in0.0 mm 0.00 in0.0 mm
05:30 AM 11.0°F-11.7°C 7.9°F-13.4°C 87% 1.2 mph WNW1.9 kmh WNW 1.2 mph1.9 kmh 30.42 in1030.1 mb - 0.00 in0.0 mm 0.00 in0.0 mm
05:40 AM 10.9°F-11.7°C 7.6°F-13.6°C 86% Calm Calm -- 30.42 in1030.1 mb - 0.00 in0.0 mm 0.00 in0.0 mm
05:50 AM 11.0°F-11.7°C 7.6°F-13.6°C 86% Calm Calm -- 30.42 in1030.1 mb - 0.00 in0.0 mm 0.00 in0.0 mm
06:00 AM 10.0°F-12.2°C 6.7°F-14.1°C 86% Calm Calm -- 30.42 in1030.1 mb - 0.00 in0.0 mm 0.00 in0.0 mm
06:10 AM 11.2°F-11.6°C 8.1°F-13.3°C 87% Calm Calm -- 30.42 in1030.1 mb - 0.00 in0.0 mm 0.00 in0.0 mm
06:20 AM 12.3°F-10.9°C 9.2°F-12.7°C 87% 1.2 mph WNW1.9 kmh WNW 2.3 mph3.7 kmh 30.42 in1030.1 mb - 0.00 in0.0 mm 0.00 in0.0 mm
06:30 AM 13.8°F-10.1°C 10.9°F-11.7°C 88% 1.2 mph WNW1.9 kmh WNW 2.3 mph3.7 kmh 30.42 in1030.1 mb - 0.00 in0.0 mm 0.00 in0.0 mm
06:40 AM 15.0°F-9.4°C 12.1°F-11.1°C 88% Calm Calm -- 30.42 in1030.1 mb - 0.00 in0.0 mm 0.00 in0.0 mm
06:50 AM 15.7°F-9.1°C 12.8°F-10.7°C 88% Calm Calm -- 30.42 in1030.1 mb - 0.00 in0.0 mm 0.00 in0.0 mm
07:00 AM 16.3°F-8.7°C 13.4°F-10.3°C 88% Calm Calm -- 30.42 in1030.1 mb - 0.00 in0.0 mm 0.00 in0.0 mm
07:10 AM 17.1°F-8.3°C 14.4°F-9.8°C 89% 1.2 mph WNW1.9 kmh WNW 2.3 mph3.7 kmh 30.43 in1030.5 mb - 0.00 in0.0 mm 0.00 in0.0 mm
07:20 AM 17.9°F-7.8°C 15.2°F-9.3°C 89% 1.2 mph W1.9 kmh W 2.3 mph3.7 kmh 30.42 in1030.1 mb - 0.00 in0.0 mm 0.00 in0.0 mm
07:30 AM 18.0°F-7.8°C 15.3°F-9.3°C 89% Calm Calm 1.2 mph1.9 kmh 30.42 in1030.1 mb - 0.00 in0.0 mm 0.00 in0.0 mm
07:40 AM 18.1°F-7.7°C 15.4°F-9.2°C 89% Calm Calm -- 30.42 in1030.1 mb - 0.00 in0.0 mm 0.00 in0.0 mm
07:50 AM 18.1°F-7.7°C 15.4°F-9.2°C 89% Calm Calm 1.2 mph1.9 kmh 30.42 in1030.1 mb - 0.00 in0.0 mm 0.00 in0.0 mm
08:00 AM 18.5°F-7.5°C 15.8°F-9.0°C 89% Calm Calm 1.2 mph1.9 kmh 30.42 in1030.1 mb - 0.00 in0.0 mm 0.00 in0.0 mm
08:10 AM 19.0°F-7.2°C 16.3°F-8.7°C 89% 1.2 mph W1.9 kmh W 2.3 mph3.7 kmh 30.41 in1029.8 mb - 0.00 in0.0 mm 0.00 in0.0 mm
08:20 AM 19.7°F-6.8°C 17.0°F-8.3°C 89% 2.3 mph WSW3.7 kmh WSW 3.5 mph5.6 kmh 30.41 in1029.8 mb - 0.00 in0.0 mm 0.00 in0.0 mm
08:30 AM 20.1°F-6.6°C 17.4°F-8.1°C 89% 1.2 mph WSW1.9 kmh WSW 2.3 mph3.7 kmh 30.41 in1029.8 mb - 0.00 in0.0 mm 0.00 in0.0 mm
08:40 AM 20.7°F-6.3°C 18.0°F-7.8°C 89% 1.2 mph WSW1.9 kmh WSW 1.2 mph1.9 kmh 30.41 in1029.8 mb - 0.00 in0.0 mm 0.00 in0.0 mm
08:50 AM 20.9°F-6.2°C 18.2°F-7.7°C 89% 1.2 mph WSW1.9 kmh WSW 2.3 mph3.7 kmh 30.41 in1029.8 mb - 0.00 in0.0 mm 0.00 in0.0 mm
09:00 AM 21.4°F-5.9°C 18.9°F-7.3°C 90% 1.2 mph WSW1.9 kmh WSW 1.2 mph1.9 kmh 30.41 in1029.8 mb - 0.00 in0.0 mm 0.00 in0.0 mm
09:10 AM 21.8°F-5.7°C 19.4°F-7.0°C 90% 1.2 mph WSW1.9 kmh WSW 1.2 mph1.9 kmh 30.41 in1029.8 mb - 0.00 in0.0 mm 0.00 in0.0 mm
09:20 AM 22.0°F-5.6°C 19.5°F-6.9°C 90% 1.2 mph WSW1.9 kmh WSW 2.3 mph3.7 kmh 30.41 in1029.8 mb - 0.00 in0.0 mm 0.00 in0.0 mm
09:30 AM 22.2°F-5.4°C 19.7°F-6.8°C 90% 1.2 mph WSW1.9 kmh WSW 1.2 mph1.9 kmh 30.42 in1030.1 mb - 0.00 in0.0 mm 0.00 in0.0 mm
09:40 AM 22.6°F-5.2°C 20.1°F-6.6°C 90% 1.2 mph WSW1.9 kmh WSW 3.5 mph5.6 kmh 30.41 in1029.8 mb - 0.00 in0.0 mm 0.00 in0.0 mm
09:50 AM 23.0°F-5.0°C 20.5°F-6.4°C 90% 1.2 mph WSW1.9 kmh WSW 2.3 mph3.7 kmh 30.41 in1029.8 mb - 0.00 in0.0 mm 0.00 in0.0 mm
10:00 AM 23.6°F-4.7°C 21.1°F-6.1°C 90% 1.2 mph WSW1.9 kmh WSW 2.3 mph3.7 kmh 30.41 in1029.8 mb - 0.00 in0.0 mm 0.00 in0.0 mm
10:10 AM 24.1°F-4.4°C 21.6°F-5.8°C 90% 3.5 mph WSW5.6 kmh WSW 4.6 mph7.4 kmh 30.41 in1029.8 mb - 0.00 in0.0 mm 0.00 in0.0 mm
10:20 AM 24.3°F-4.3°C 21.8°F-5.7°C 90% 2.3 mph SW3.7 kmh SW 4.6 mph7.4 kmh 30.41 in1029.8 mb - 0.00 in0.0 mm 0.00 in0.0 mm
10:30 AM 24.4°F-4.2°C 21.9°F-5.6°C 90% 2.3 mph WSW3.7 kmh WSW 2.3 mph3.7 kmh 30.41 in1029.8 mb - 0.00 in0.0 mm 0.00 in0.0 mm
10:40 AM 24.7°F-4.1°C 22.2°F-5.4°C 90% 2.3 mph W3.7 kmh W 3.5 mph5.6 kmh 30.41 in1029.8 mb - 0.00 in0.0 mm 0.00 in0.0 mm
10:50 AM 24.9°F-3.9°C 22.3°F-5.4°C 90% 3.5 mph SW5.6 kmh SW 6.9 mph11.1 kmh 30.41 in1029.8 mb - 0.00 in0.0 mm 0.00 in0.0 mm
11:00 AM 25.3°F-3.7°C 22.5°F-5.3°C 89% 3.5 mph WSW5.6 kmh WSW 4.6 mph7.4 kmh 30.41 in1029.8 mb - 0.00 in0.0 mm 0.00 in0.0 mm
11:10 AM 25.6°F-3.6°C 22.0°F-5.6°C 86% 2.3 mph W3.7 kmh W 3.5 mph5.6 kmh 30.41 in1029.8 mb - 0.00 in0.0 mm 0.00 in0.0 mm
11:20 AM 25.9°F-3.4°C 21.7°F-5.7°C 84% 3.5 mph WSW5.6 kmh WSW 3.5 mph5.6 kmh 30.41 in1029.8 mb - 0.00 in0.0 mm 0.00 in0.0 mm
11:30 AM 26.2°F-3.2°C 21.4°F-5.9°C 82% 2.3 mph WSW3.7 kmh WSW 3.5 mph5.6 kmh 30.41 in1029.8 mb - 0.00 in0.0 mm 0.00 in0.0 mm
11:40 AM 26.6°F-3.0°C 21.6°F-5.8°C 81% 2.3 mph W3.7 kmh W 4.6 mph7.4 kmh 30.41 in1029.8 mb - 0.00 in0.0 mm 0.00 in0.0 mm
11:50 AM 26.7°F-2.9°C 21.4°F-5.9°C 80% 2.3 mph WSW3.7 kmh WSW 5.8 mph9.3 kmh 30.41 in1029.8 mb - 0.00 in0.0 mm 0.00 in0.0 mm
12:00 PM 26.7°F-2.9°C 21.4°F-5.9°C 80% 4.6 mph W7.4 kmh W 4.6 mph7.4 kmh 30.41 in1029.8 mb - 0.00 in0.0 mm 0.00 in0.0 mm
12:10 PM 27.1°F-2.7°C 21.5°F-5.8°C 79% 4.6 mph WNW7.4 kmh WNW 6.9 mph11.1 kmh 30.41 in1029.8 mb - 0.00 in0.0 mm 0.00 in0.0 mm
12:20 PM 27.1°F-2.7°C 21.7°F-5.7°C 80% 3.5 mph WSW5.6 kmh WSW 5.8 mph9.3 kmh 30.40 in1029.5 mb - 0.00 in0.0 mm 0.00 in0.0 mm
12:30 PM 26.9°F-2.8°C 21.2°F-6.0°C 79% 4.6 mph NW7.4 kmh NW 8.1 mph13.0 kmh 30.40 in1029.5 mb - 0.00 in0.0 mm 0.00 in0.0 mm
12:40 PM 27.0°F-2.8°C 21.4°F-5.9°C 79% 4.6 mph W7.4 kmh W 8.1 mph13.0 kmh 30.39 in1029.1 mb - 0.00 in0.0 mm 0.00 in0.0 mm
12:50 PM 27.0°F-2.8°C 21.3°F-5.9°C 79% 5.8 mph W9.3 kmh W 6.9 mph11.1 kmh 30.39 in1029.1 mb - 0.00 in0.0 mm 0.00 in0.0 mm
01:00 PM 27.4°F-2.6°C 21.7°F-5.7°C 79% 2.3 mph W3.7 kmh W 4.6 mph7.4 kmh 30.38 in1028.8 mb - 0.00 in0.0 mm 0.00 in0.0 mm
01:10 PM 27.9°F-2.3°C 21.9°F-5.6°C 78% 2.3 mph WSW3.7 kmh WSW 3.5 mph5.6 kmh 30.37 in1028.4 mb - 0.00 in0.0 mm 0.00 in0.0 mm
01:20 PM 27.8°F-2.3°C 21.9°F-5.6°C 78% 2.3 mph WSW3.7 kmh WSW 4.6 mph7.4 kmh 30.37 in1028.4 mb - 0.00 in0.0 mm 0.00 in0.0 mm
01:30 PM 27.6°F-2.4°C 22.0°F-5.6°C 79% 4.6 mph WSW7.4 kmh WSW 5.8 mph9.3 kmh 30.36 in1028.1 mb - 0.00 in0.0 mm 0.00 in0.0 mm
01:40 PM 27.4°F-2.6°C 22.0°F-5.6°C 80% 5.8 mph SW9.3 kmh SW 6.9 mph11.1 kmh 30.36 in1028.1 mb - 0.00 in0.0 mm 0.00 in0.0 mm
01:50 PM 27.8°F-2.3°C 22.1°F-5.5°C 79% 4.6 mph SW7.4 kmh SW 4.6 mph7.4 kmh 30.36 in1028.1 mb - 0.00 in0.0 mm 0.00 in0.0 mm
02:00 PM 27.9°F-2.3°C 21.9°F-5.6°C 78% 5.8 mph SW9.3 kmh SW 8.1 mph13.0 kmh 30.35 in1027.8 mb - 0.00 in0.0 mm 0.00 in0.0 mm
02:10 PM 27.7°F-2.4°C 21.7°F-5.7°C 78% 3.5 mph WSW5.6 kmh WSW 5.8 mph9.3 kmh 30.35 in1027.8 mb - 0.00 in0.0 mm 0.00 in0.0 mm
02:20 PM 28.1°F-2.2°C 22.1°F-5.5°C 78% 5.8 mph WSW9.3 kmh WSW 9.2 mph14.8 kmh 30.35 in1027.8 mb - 0.00 in0.0 mm 0.00 in0.0 mm
02:30 PM 28.1°F-2.2°C 21.8°F-5.7°C 77% 5.8 mph SW9.3 kmh SW 8.1 mph13.0 kmh 30.34 in1027.4 mb - 0.00 in0.0 mm 0.00 in0.0 mm
02:40 PM 28.2°F-2.1°C 21.9°F-5.6°C 77% 5.8 mph SW9.3 kmh SW 9.2 mph14.8 kmh 30.34 in1027.4 mb - 0.00 in0.0 mm 0.00 in0.0 mm
02:50 PM 27.9°F-2.3°C 21.9°F-5.6°C 78% 5.8 mph WSW9.3 kmh WSW 9.2 mph14.8 kmh 30.34 in1027.4 mb - 0.00 in0.0 mm 0.00 in0.0 mm
03:00 PM 27.8°F-2.3°C 22.1°F-5.5°C 79% 4.6 mph SW7.4 kmh SW 9.2 mph14.8 kmh 30.34 in1027.4 mb - 0.00 in0.0 mm 0.00 in0.0 mm
03:10 PM 27.5°F-2.5°C 21.5°F-5.8°C 78% 5.8 mph WSW9.3 kmh WSW 8.1 mph13.0 kmh 30.34 in1027.4 mb - 0.00 in0.0 mm 0.00 in0.0 mm
03:20 PM 27.4°F-2.6°C 21.5°F-5.8°C 78% 5.8 mph SW9.3 kmh SW 8.1 mph13.0 kmh 30.34 in1027.4 mb - 0.00 in0.0 mm 0.00 in0.0 mm
03:30 PM 27.3°F-2.6°C 21.6°F-5.8°C 79% 5.8 mph SSW9.3 kmh SSW 8.1 mph13.0 kmh 30.33 in1027.1 mb - 0.00 in0.0 mm 0.00 in0.0 mm
03:40 PM 27.1°F-2.7°C 21.2°F-6.0°C 78% 3.5 mph SW5.6 kmh SW 5.8 mph9.3 kmh 30.33 in1027.1 mb - 0.00 in0.0 mm 0.00 in0.0 mm
03:50 PM 26.8°F-2.9°C 21.1°F-6.1°C 79% 6.9 mph SW11.1 kmh SW 6.9 mph11.1 kmh 30.33 in1027.1 mb - 0.00 in0.0 mm 0.00 in0.0 mm
04:00 PM 26.5°F-3.1°C 21.2°F-6.0°C 80% 3.5 mph SW5.6 kmh SW 5.8 mph9.3 kmh 30.33 in1027.1 mb - 0.00 in0.0 mm 0.00 in0.0 mm
04:10 PM 26.2°F-3.2°C 20.9°F-6.2°C 80% 5.8 mph SW9.3 kmh SW 9.2 mph14.8 kmh 30.33 in1027.1 mb - 0.00 in0.0 mm 0.00 in0.0 mm
04:20 PM 25.8°F-3.4°C 20.8°F-6.2°C 81% 4.6 mph SW7.4 kmh SW 5.8 mph9.3 kmh 30.33 in1027.1 mb - 0.00 in0.0 mm 0.00 in0.0 mm
04:30 PM 25.5°F-3.6°C 20.5°F-6.4°C 81% 5.8 mph SSW9.3 kmh SSW 6.9 mph11.1 kmh 30.32 in1026.8 mb - 0.00 in0.0 mm 0.00 in0.0 mm
04:40 PM 25.4°F-3.7°C 20.7°F-6.3°C 82% 3.5 mph SW5.6 kmh SW 5.8 mph9.3 kmh 30.33 in1027.1 mb - 0.00 in0.0 mm 0.00 in0.0 mm
04:50 PM 25.2°F-3.8°C 20.5°F-6.4°C 82% 4.6 mph SW7.4 kmh SW 6.9 mph11.1 kmh 30.32 in1026.8 mb - 0.00 in0.0 mm 0.00 in0.0 mm
05:00 PM 25.1°F-3.8°C 20.6°F-6.3°C 83% 6.9 mph SW11.1 kmh SW 9.2 mph14.8 kmh 30.32 in1026.8 mb - 0.00 in0.0 mm 0.00 in0.0 mm
05:10 PM 24.8°F-4.0°C 20.4°F-6.4°C 83% 3.5 mph SW5.6 kmh SW 4.6 mph7.4 kmh 30.32 in1026.8 mb - 0.00 in0.0 mm 0.00 in0.0 mm
05:20 PM 24.7°F-4.1°C 20.6°F-6.3°C 84% 4.6 mph SW7.4 kmh SW 6.9 mph11.1 kmh 30.32 in1026.8 mb - 0.00 in0.0 mm 0.00 in0.0 mm
05:30 PM 24.7°F-4.1°C 20.6°F-6.3°C 84% 4.6 mph SW7.4 kmh SW 5.8 mph9.3 kmh 30.32 in1026.8 mb - 0.00 in0.0 mm 0.00 in0.0 mm
05:40 PM 24.7°F-4.1°C 20.6°F-6.3°C 84% 4.6 mph SW7.4 kmh SW 6.9 mph11.1 kmh 30.32 in1026.8 mb - 0.00 in0.0 mm 0.00 in0.0 mm
05:50 PM 24.7°F-4.1°C 20.6°F-6.3°C 84% 2.3 mph SW3.7 kmh SW 4.6 mph7.4 kmh 30.33 in1027.1 mb - 0.00 in0.0 mm 0.00 in0.0 mm
06:00 PM 24.8°F-4.0°C 20.6°F-6.3°C 84% 2.3 mph SW3.7 kmh SW 5.8 mph9.3 kmh 30.33 in1027.1 mb - 0.00 in0.0 mm 0.00 in0.0 mm
06:10 PM 24.7°F-4.1°C 20.6°F-6.3°C 84% 5.8 mph SSW9.3 kmh SSW 10.4 mph16.7 kmh 30.33 in1027.1 mb - 0.00 in0.0 mm 0.00 in0.0 mm
06:20 PM 24.7°F-4.1°C 20.5°F-6.4°C 84% 4.6 mph SSW7.4 kmh SSW 5.8 mph9.3 kmh 30.32 in1026.8 mb - 0.00 in0.0 mm 0.00 in0.0 mm
06:30 PM 24.7°F-4.1°C 20.6°F-6.3°C 84% 4.6 mph SSW7.4 kmh SSW 4.6 mph7.4 kmh 30.33 in1027.1 mb - 0.00 in0.0 mm 0.00 in0.0 mm
06:40 PM 24.7°F-4.1°C 20.6°F-6.3°C 84% 4.6 mph SW7.4 kmh SW 5.8 mph9.3 kmh 30.33 in1027.1 mb - 0.00 in0.0 mm 0.00 in0.0 mm
06:50 PM 24.6°F-4.1°C 20.5°F-6.4°C 84% 4.6 mph SSW7.4 kmh SSW 4.6 mph7.4 kmh 30.33 in1027.1 mb - 0.00 in0.0 mm 0.00 in0.0 mm
07:00 PM 24.6°F-4.1°C 20.5°F-6.4°C 84% 4.6 mph SW7.4 kmh SW 5.8 mph9.3 kmh 30.33 in1027.1 mb - 0.00 in0.0 mm 0.00 in0.0 mm
07:10 PM 24.5°F-4.2°C 20.4°F-6.4°C 84% 4.6 mph SW7.4 kmh SW 8.1 mph13.0 kmh 30.34 in1027.4 mb - 0.00 in0.0 mm 0.00 in0.0 mm
07:20 PM 24.5°F-4.2°C 20.4°F-6.4°C 84% 4.6 mph SW7.4 kmh SW 4.6 mph7.4 kmh 30.34 in1027.4 mb - 0.00 in0.0 mm 0.00 in0.0 mm
07:30 PM 24.5°F-4.2°C 20.4°F-6.4°C 84% 3.5 mph SW5.6 kmh SW 3.5 mph5.6 kmh 30.34 in1027.4 mb - 0.00 in0.0 mm 0.00 in0.0 mm
07:40 PM 24.5°F-4.2°C 20.4°F-6.4°C 84% 3.5 mph SSW5.6 kmh SSW 3.5 mph5.6 kmh 30.34 in1027.4 mb - 0.00 in0.0 mm 0.00 in0.0 mm
07:50 PM 24.5°F-4.2°C 20.4°F-6.4°C 84% 3.5 mph SW5.6 kmh SW 3.5 mph5.6 kmh 30.34 in1027.4 mb - 0.00 in0.0 mm 0.00 in0.0 mm
08:00 PM 24.5°F-4.2°C 20.4°F-6.4°C 84% 3.5 mph SW5.6 kmh SW 3.5 mph5.6 kmh 30.34 in1027.4 mb - 0.00 in0.0 mm 0.00 in0.0 mm
08:10 PM 24.6°F-4.1°C 20.4°F-6.4°C 84% 2.3 mph SW3.7 kmh SW 3.5 mph5.6 kmh 30.34 in1027.4 mb - 0.00 in0.0 mm 0.00 in0.0 mm
08:20 PM 24.7°F-4.1°C 20.5°F-6.4°C 84% 1.2 mph SW1.9 kmh SW 2.3 mph3.7 kmh 30.33 in1027.1 mb - 0.00 in0.0 mm 0.00 in0.0 mm
08:30 PM 24.7°F-4.1°C 20.6°F-6.3°C 84% 4.6 mph W7.4 kmh W 6.9 mph11.1 kmh 30.33 in1027.1 mb - 0.00 in0.0 mm 0.00 in0.0 mm
08:40 PM 24.7°F-4.1°C 20.6°F-6.3°C 84% 3.5 mph W5.6 kmh W 5.8 mph9.3 kmh 30.33 in1027.1 mb - 0.00 in0.0 mm 0.00 in0.0 mm
08:50 PM 24.7°F-4.1°C 20.6°F-6.3°C 84% 3.5 mph WSW5.6 kmh WSW 3.5 mph5.6 kmh 30.32 in1026.8 mb - 0.00 in0.0 mm 0.00 in0.0 mm
09:00 PM 24.7°F-4.1°C 20.6°F-6.3°C 84% 4.6 mph W7.4 kmh W 8.1 mph13.0 kmh 30.32 in1026.8 mb - 0.00 in0.0 mm 0.00 in0.0 mm
09:10 PM 24.8°F-4.0°C 20.7°F-6.3°C 84% 2.3 mph WNW3.7 kmh WNW 3.5 mph5.6 kmh 30.32 in1026.8 mb - 0.00 in0.0 mm 0.00 in0.0 mm
09:20 PM 24.8°F-4.0°C 20.7°F-6.3°C 84% 2.3 mph WNW3.7 kmh WNW 3.5 mph5.6 kmh 30.32 in1026.8 mb - 0.00 in0.0 mm 0.00 in0.0 mm
09:30 PM 24.8°F-4.0°C 20.7°F-6.3°C 84% 2.3 mph W3.7 kmh W 3.5 mph5.6 kmh 30.32 in1026.8 mb - 0.00 in0.0 mm 0.00 in0.0 mm
09:40 PM 25.0°F-3.9°C 21.1°F-6.1°C 85% 3.5 mph WSW5.6 kmh WSW 4.6 mph7.4 kmh 30.32 in1026.8 mb - 0.00 in0.0 mm 0.00 in0.0 mm
09:50 PM 24.9°F-3.9°C 21.1°F-6.1°C 85% 2.3 mph W3.7 kmh W 3.5 mph5.6 kmh 30.32 in1026.8 mb - 0.00 in0.0 mm 0.00 in0.0 mm
10:00 PM 25.0°F-3.9°C 21.1°F-6.1°C 85% 3.5 mph WSW5.6 kmh WSW 3.5 mph5.6 kmh 30.32 in1026.8 mb - 0.00 in0.0 mm 0.00 in0.0 mm
10:10 PM 25.1°F-3.8°C 21.3°F-5.9°C 85% 3.5 mph WSW5.6 kmh WSW 5.8 mph9.3 kmh 30.32 in1026.8 mb - 0.00 in0.0 mm 0.00 in0.0 mm
10:20 PM 25.3°F-3.7°C 21.4°F-5.9°C 85% 4.6 mph WSW7.4 kmh WSW 6.9 mph11.1 kmh 30.32 in1026.8 mb - 0.00 in0.0 mm 0.00 in0.0 mm
10:30 PM 25.3°F-3.7°C 21.4°F-5.9°C 85% 2.3 mph WSW3.7 kmh WSW 4.6 mph7.4 kmh 30.32 in1026.8 mb - 0.00 in0.0 mm 0.00 in0.0 mm
10:40 PM 25.4°F-3.7°C 21.5°F-5.8°C 85% 2.3 mph WSW3.7 kmh WSW 3.5 mph5.6 kmh 30.31 in1026.4 mb - 0.00 in0.0 mm 0.00 in0.0 mm
10:50 PM 25.5°F-3.6°C 21.6°F-5.8°C 85% 1.2 mph W1.9 kmh W 3.5 mph5.6 kmh 30.31 in1026.4 mb - 0.00 in0.0 mm 0.00 in0.0 mm
11:00 PM 25.6°F-3.6°C 22.0°F-5.6°C 86% 2.3 mph WSW3.7 kmh WSW 3.5 mph5.6 kmh 30.31 in1026.4 mb - 0.00 in0.0 mm 0.00 in0.0 mm
11:10 PM 25.7°F-3.5°C 22.1°F-5.5°C 86% 3.5 mph WSW5.6 kmh WSW 4.6 mph7.4 kmh 30.32 in1026.8 mb - 0.00 in0.0 mm 0.00 in0.0 mm
11:20 PM 25.7°F-3.5°C 22.1°F-5.5°C 86% 2.3 mph WSW3.7 kmh WSW 3.5 mph5.6 kmh 30.32 in1026.8 mb - 0.00 in0.0 mm 0.00 in0.0 mm
11:30 PM 25.8°F-3.4°C 22.2°F-5.4°C 86% 4.6 mph W7.4 kmh W 6.9 mph11.1 kmh 30.32 in1026.8 mb - 0.00 in0.0 mm 0.00 in0.0 mm
11:40 PM 25.8°F-3.4°C 22.5°F-5.3°C 87% 4.6 mph WSW7.4 kmh WSW 4.6 mph7.4 kmh 30.31 in1026.4 mb - 0.00 in0.0 mm 0.00 in0.0 mm
11:50 PM 25.8°F-3.4°C 22.5°F-5.3°C 87% 4.6 mph W7.4 kmh W 8.1 mph13.0 kmh 30.31 in1026.4 mb - 0.00 in0.0 mm 0.00 in0.0 mm